sensor_id;sensor_type;location;lat;lon;timestamp;P1;durP1;ratioP1;P2;durP2;ratioP2
43529;SDS011;55654;50.966;6.878;2023-02-16T00:00:31;53.97;;;27.17;;
43529;SDS011;55654;50.966;6.878;2023-02-16T00:02:57;52.63;;;29.10;;
43529;SDS011;55654;50.966;6.878;2023-02-16T00:05:27;50.53;;;29.63;;
43529;SDS011;55654;50.966;6.878;2023-02-16T00:07:54;55.37;;;30.07;;
43529;SDS011;55654;50.966;6.878;2023-02-16T00:10:20;55.80;;;28.93;;
43529;SDS011;55654;50.966;6.878;2023-02-16T00:12:46;56.00;;;29.13;;
43529;SDS011;55654;50.966;6.878;2023-02-16T00:15:31;58.87;;;30.70;;
43529;SDS011;55654;50.966;6.878;2023-02-16T00:18:00;63.93;;;29.97;;
43529;SDS011;55654;50.966;6.878;2023-02-16T00:20:28;51.47;;;28.17;;
43529;SDS011;55654;50.966;6.878;2023-02-16T00:22:56;63.10;;;31.63;;
43529;SDS011;55654;50.966;6.878;2023-02-16T00:25:23;63.83;;;31.87;;
43529;SDS011;55654;50.966;6.878;2023-02-16T00:27:49;63.53;;;30.13;;
43529;SDS011;55654;50.966;6.878;2023-02-16T00:30:16;65.27;;;31.67;;
43529;SDS011;55654;50.966;6.878;2023-02-16T00:32:42;58.97;;;30.67;;
43529;SDS011;55654;50.966;6.878;2023-02-16T00:35:12;69.27;;;35.27;;
43529;SDS011;55654;50.966;6.878;2023-02-16T00:37:39;65.20;;;31.97;;
43529;SDS011;55654;50.966;6.878;2023-02-16T00:40:05;61.57;;;31.93;;
43529;SDS011;55654;50.966;6.878;2023-02-16T00:42:31;62.17;;;31.80;;
43529;SDS011;55654;50.966;6.878;2023-02-16T00:44:59;68.47;;;33.60;;
43529;SDS011;55654;50.966;6.878;2023-02-16T00:49:56;55.63;;;30.27;;
43529;SDS011;55654;50.966;6.878;2023-02-16T00:54:53;64.83;;;32.27;;
43529;SDS011;55654;50.966;6.878;2023-02-16T00:57:20;62.27;;;32.20;;
43529;SDS011;55654;50.966;6.878;2023-02-16T00:59:46;63.90;;;33.07;;
43529;SDS011;55654;50.966;6.878;2023-02-16T01:02:13;63.27;;;33.40;;
43529;SDS011;55654;50.966;6.878;2023-02-16T01:04:40;65.77;;;32.23;;
43529;SDS011;55654;50.966;6.878;2023-02-16T01:07:15;73.03;;;34.13;;
43529;SDS011;55654;50.966;6.878;2023-02-16T01:10:02;63.90;;;32.23;;
43529;SDS011;55654;50.966;6.878;2023-02-16T01:12:47;68.40;;;32.20;;
43529;SDS011;55654;50.966;6.878;2023-02-16T01:15:13;69.80;;;34.07;;
43529;SDS011;55654;50.966;6.878;2023-02-16T01:17:39;64.63;;;33.07;;
43529;SDS011;55654;50.966;6.878;2023-02-16T01:20:13;68.60;;;34.67;;
43529;SDS011;55654;50.966;6.878;2023-02-16T01:22:39;72.40;;;33.10;;
43529;SDS011;55654;50.966;6.878;2023-02-16T01:25:05;70.43;;;33.47;;
43529;SDS011;55654;50.966;6.878;2023-02-16T01:27:31;74.50;;;34.57;;
43529;SDS011;55654;50.966;6.878;2023-02-16T01:29:58;69.33;;;31.83;;
43529;SDS011;55654;50.966;6.878;2023-02-16T01:32:26;63.77;;;32.93;;
43529;SDS011;55654;50.966;6.878;2023-02-16T01:34:52;79.20;;;34.17;;
43529;SDS011;55654;50.966;6.878;2023-02-16T01:37:18;73.90;;;33.07;;
43529;SDS011;55654;50.966;6.878;2023-02-16T01:39:47;68.27;;;33.70;;
43529;SDS011;55654;50.966;6.878;2023-02-16T01:44:58;68.93;;;33.03;;
43529;SDS011;55654;50.966;6.878;2023-02-16T01:47:35;69.93;;;33.27;;
43529;SDS011;55654;50.966;6.878;2023-02-16T01:50:24;64.23;;;32.83;;
43529;SDS011;55654;50.966;6.878;2023-02-16T01:55:19;69.40;;;33.47;;
43529;SDS011;55654;50.966;6.878;2023-02-16T02:00:26;77.13;;;35.03;;
43529;SDS011;55654;50.966;6.878;2023-02-16T02:02:59;69.87;;;33.40;;
43529;SDS011;55654;50.966;6.878;2023-02-16T02:05:45;71.53;;;34.23;;
43529;SDS011;55654;50.966;6.878;2023-02-16T02:08:17;74.20;;;34.63;;
43529;SDS011;55654;50.966;6.878;2023-02-16T02:13:46;79.67;;;34.07;;
43529;SDS011;55654;50.966;6.878;2023-02-16T02:16:17;69.13;;;33.03;;
43529;SDS011;55654;50.966;6.878;2023-02-16T02:18:44;72.67;;;34.00;;
43529;SDS011;55654;50.966;6.878;2023-02-16T02:21:15;86.70;;;37.27;;
43529;SDS011;55654;50.966;6.878;2023-02-16T02:26:53;73.87;;;34.63;;
43529;SDS011;55654;50.966;6.878;2023-02-16T02:37:46;74.93;;;35.40;;
43529;SDS011;55654;50.966;6.878;2023-02-16T02:40:21;73.20;;;35.17;;
43529;SDS011;55654;50.966;6.878;2023-02-16T02:43:25;76.27;;;35.70;;
43529;SDS011;55654;50.966;6.878;2023-02-16T02:45:51;82.95;;;36.17;;
43529;SDS011;55654;50.966;6.878;2023-02-16T02:48:19;86.17;;;37.27;;
43529;SDS011;55654;50.966;6.878;2023-02-16T02:50:56;80.50;;;38.50;;
43529;SDS011;55654;50.966;6.878;2023-02-16T02:53:44;89.63;;;39.83;;
43529;SDS011;55654;50.966;6.878;2023-02-16T02:56:12;78.90;;;39.20;;
43529;SDS011;55654;50.966;6.878;2023-02-16T02:59:00;84.80;;;38.33;;
43529;SDS011;55654;50.966;6.878;2023-02-16T03:01:47;82.37;;;37.73;;
43529;SDS011;55654;50.966;6.878;2023-02-16T03:04:15;85.33;;;38.87;;
43529;SDS011;55654;50.966;6.878;2023-02-16T03:06:44;86.07;;;37.73;;
43529;SDS011;55654;50.966;6.878;2023-02-16T03:09:13;87.00;;;38.53;;
43529;SDS011;55654;50.966;6.878;2023-02-16T03:11:39;85.80;;;37.93;;
43529;SDS011;55654;50.966;6.878;2023-02-16T03:14:27;79.83;;;37.83;;
43529;SDS011;55654;50.966;6.878;2023-02-16T03:17:29;85.10;;;37.80;;
43529;SDS011;55654;50.966;6.878;2023-02-16T03:20:07;85.93;;;38.77;;
43529;SDS011;55654;50.966;6.878;2023-02-16T03:22:54;89.67;;;40.00;;
43529;SDS011;55654;50.966;6.878;2023-02-16T03:25:39;86.33;;;39.87;;
43529;SDS011;55654;50.966;6.878;2023-02-16T03:28:25;93.97;;;39.33;;
43529;SDS011;55654;50.966;6.878;2023-02-16T03:31:13;82.70;;;38.07;;
43529;SDS011;55654;50.966;6.878;2023-02-16T03:33:41;88.47;;;36.83;;
43529;SDS011;55654;50.966;6.878;2023-02-16T03:36:07;82.90;;;38.13;;
43529;SDS011;55654;50.966;6.878;2023-02-16T03:38:34;89.03;;;38.60;;
43529;SDS011;55654;50.966;6.878;2023-02-16T03:41:01;84.83;;;37.67;;
43529;SDS011;55654;50.966;6.878;2023-02-16T03:43:28;87.93;;;39.07;;
43529;SDS011;55654;50.966;6.878;2023-02-16T03:45:54;85.73;;;37.40;;
43529;SDS011;55654;50.966;6.878;2023-02-16T03:48:20;92.33;;;39.30;;
43529;SDS011;55654;50.966;6.878;2023-02-16T03:50:46;94.60;;;39.10;;
43529;SDS011;55654;50.966;6.878;2023-02-16T03:53:12;87.73;;;38.97;;
43529;SDS011;55654;50.966;6.878;2023-02-16T03:55:39;92.00;;;39.63;;
43529;SDS011;55654;50.966;6.878;2023-02-16T03:58:06;98.17;;;42.53;;
43529;SDS011;55654;50.966;6.878;2023-02-16T04:00:33;92.57;;;41.27;;
43529;SDS011;55654;50.966;6.878;2023-02-16T04:03:02;89.13;;;39.60;;
43529;SDS011;55654;50.966;6.878;2023-02-16T04:05:28;94.37;;;41.00;;
43529;SDS011;55654;50.966;6.878;2023-02-16T04:07:54;89.13;;;38.13;;
43529;SDS011;55654;50.966;6.878;2023-02-16T04:10:21;91.43;;;40.47;;
43529;SDS011;55654;50.966;6.878;2023-02-16T04:12:47;90.33;;;40.40;;
43529;SDS011;55654;50.966;6.878;2023-02-16T04:15:17;84.63;;;39.27;;
43529;SDS011;55654;50.966;6.878;2023-02-16T04:17:44;99.93;;;38.80;;
43529;SDS011;55654;50.966;6.878;2023-02-16T04:20:11;95.20;;;40.53;;
43529;SDS011;55654;50.966;6.878;2023-02-16T04:22:38;96.77;;;38.80;;
43529;SDS011;55654;50.966;6.878;2023-02-16T04:25:04;99.67;;;40.60;;
43529;SDS011;55654;50.966;6.878;2023-02-16T04:27:30;91.17;;;39.10;;
43529;SDS011;55654;50.966;6.878;2023-02-16T04:29:56;98.83;;;40.97;;
43529;SDS011;55654;50.966;6.878;2023-02-16T04:32:22;92.80;;;40.47;;
43529;SDS011;55654;50.966;6.878;2023-02-16T04:34:48;89.60;;;38.47;;
43529;SDS011;55654;50.966;6.878;2023-02-16T04:37:14;90.83;;;40.13;;
43529;SDS011;55654;50.966;6.878;2023-02-16T04:39:40;100.83;;;41.13;;
43529;SDS011;55654;50.966;6.878;2023-02-16T04:42:06;104.53;;;40.10;;
43529;SDS011;55654;50.966;6.878;2023-02-16T04:44:32;98.83;;;40.53;;
43529;SDS011;55654;50.966;6.878;2023-02-16T04:46:58;95.77;;;39.60;;
43529;SDS011;55654;50.966;6.878;2023-02-16T04:49:24;91.53;;;39.63;;
43529;SDS011;55654;50.966;6.878;2023-02-16T04:51:50;85.83;;;38.73;;
43529;SDS011;55654;50.966;6.878;2023-02-16T04:54:16;92.03;;;39.80;;
43529;SDS011;55654;50.966;6.878;2023-02-16T04:56:45;97.63;;;40.37;;
43529;SDS011;55654;50.966;6.878;2023-02-16T04:59:11;96.40;;;39.57;;
43529;SDS011;55654;50.966;6.878;2023-02-16T05:01:40;96.80;;;40.87;;
43529;SDS011;55654;50.966;6.878;2023-02-16T05:04:06;95.50;;;39.73;;
43529;SDS011;55654;50.966;6.878;2023-02-16T05:06:36;95.03;;;39.53;;
43529;SDS011;55654;50.966;6.878;2023-02-16T05:09:02;105.00;;;40.57;;
43529;SDS011;55654;50.966;6.878;2023-02-16T05:11:28;100.30;;;42.00;;
43529;SDS011;55654;50.966;6.878;2023-02-16T05:14:16;101.33;;;40.20;;
43529;SDS011;55654;50.966;6.878;2023-02-16T05:17:01;99.93;;;41.83;;
43529;SDS011;55654;50.966;6.878;2023-02-16T05:19:27;106.47;;;42.90;;
43529;SDS011;55654;50.966;6.878;2023-02-16T05:21:53;104.20;;;42.50;;
43529;SDS011;55654;50.966;6.878;2023-02-16T05:24:19;103.70;;;42.47;;
43529;SDS011;55654;50.966;6.878;2023-02-16T05:26:45;97.67;;;40.27;;
43529;SDS011;55654;50.966;6.878;2023-02-16T05:29:14;102.47;;;40.53;;
43529;SDS011;55654;50.966;6.878;2023-02-16T05:31:42;109.80;;;41.90;;
43529;SDS011;55654;50.966;6.878;2023-02-16T05:34:08;106.23;;;41.77;;
43529;SDS011;55654;50.966;6.878;2023-02-16T05:36:34;106.80;;;43.23;;
43529;SDS011;55654;50.966;6.878;2023-02-16T05:39:00;115.63;;;42.00;;
43529;SDS011;55654;50.966;6.878;2023-02-16T05:41:26;101.93;;;41.50;;
43529;SDS011;55654;50.966;6.878;2023-02-16T05:43:53;105.53;;;41.70;;
43529;SDS011;55654;50.966;6.878;2023-02-16T05:46:20;101.50;;;42.83;;
43529;SDS011;55654;50.966;6.878;2023-02-16T05:48:47;109.43;;;44.03;;
43529;SDS011;55654;50.966;6.878;2023-02-16T05:51:13;108.03;;;41.73;;
43529;SDS011;55654;50.966;6.878;2023-02-16T05:53:39;109.63;;;43.00;;
43529;SDS011;55654;50.966;6.878;2023-02-16T05:56:05;106.97;;;42.00;;
43529;SDS011;55654;50.966;6.878;2023-02-16T05:58:31;110.83;;;43.53;;
43529;SDS011;55654;50.966;6.878;2023-02-16T06:00:57;107.73;;;42.40;;
43529;SDS011;55654;50.966;6.878;2023-02-16T06:03:25;111.33;;;43.07;;
43529;SDS011;55654;50.966;6.878;2023-02-16T06:05:52;123.87;;;44.43;;
43529;SDS011;55654;50.966;6.878;2023-02-16T06:08:21;103.40;;;41.73;;
43529;SDS011;55654;50.966;6.878;2023-02-16T06:10:50;100.40;;;42.40;;
43529;SDS011;55654;50.966;6.878;2023-02-16T06:13:16;96.43;;;43.10;;
43529;SDS011;55654;50.966;6.878;2023-02-16T06:15:43;101.30;;;42.67;;
43529;SDS011;55654;50.966;6.878;2023-02-16T06:18:09;93.70;;;41.70;;
43529;SDS011;55654;50.966;6.878;2023-02-16T06:20:35;98.50;;;42.33;;
43529;SDS011;55654;50.966;6.878;2023-02-16T06:23:01;93.70;;;41.40;;
43529;SDS011;55654;50.966;6.878;2023-02-16T06:25:27;94.03;;;43.43;;
43529;SDS011;55654;50.966;6.878;2023-02-16T06:27:53;88.13;;;40.93;;
43529;SDS011;55654;50.966;6.878;2023-02-16T06:30:21;82.37;;;39.90;;
43529;SDS011;55654;50.966;6.878;2023-02-16T06:32:47;76.20;;;36.47;;
43529;SDS011;55654;50.966;6.878;2023-02-16T06:35:13;82.23;;;38.17;;
43529;SDS011;55654;50.966;6.878;2023-02-16T06:37:39;80.23;;;38.30;;
43529;SDS011;55654;50.966;6.878;2023-02-16T06:40:05;80.67;;;39.30;;
43529;SDS011;55654;50.966;6.878;2023-02-16T06:42:34;77.97;;;36.50;;
43529;SDS011;55654;50.966;6.878;2023-02-16T06:45:00;75.97;;;36.87;;
43529;SDS011;55654;50.966;6.878;2023-02-16T06:47:26;76.47;;;38.20;;
43529;SDS011;55654;50.966;6.878;2023-02-16T06:49:52;76.83;;;37.27;;
43529;SDS011;55654;50.966;6.878;2023-02-16T06:52:18;77.67;;;36.73;;
43529;SDS011;55654;50.966;6.878;2023-02-16T06:54:44;71.27;;;36.97;;
43529;SDS011;55654;50.966;6.878;2023-02-16T06:57:10;71.37;;;37.47;;
43529;SDS011;55654;50.966;6.878;2023-02-16T06:59:36;74.17;;;38.07;;
43529;SDS011;55654;50.966;6.878;2023-02-16T07:02:02;77.10;;;38.20;;
43529;SDS011;55654;50.966;6.878;2023-02-16T07:04:28;72.17;;;35.93;;
43529;SDS011;55654;50.966;6.878;2023-02-16T07:06:56;61.73;;;33.57;;
43529;SDS011;55654;50.966;6.878;2023-02-16T07:09:22;67.67;;;35.00;;
43529;SDS011;55654;50.966;6.878;2023-02-16T07:11:48;60.03;;;31.17;;
43529;SDS011;55654;50.966;6.878;2023-02-16T07:14:14;64.47;;;34.33;;
43529;SDS011;55654;50.966;6.878;2023-02-16T07:16:40;57.10;;;32.27;;
43529;SDS011;55654;50.966;6.878;2023-02-16T07:19:07;56.10;;;31.50;;
43529;SDS011;55654;50.966;6.878;2023-02-16T07:21:33;55.97;;;30.50;;
43529;SDS011;55654;50.966;6.878;2023-02-16T07:23:59;54.17;;;31.07;;
43529;SDS011;55654;50.966;6.878;2023-02-16T07:26:25;55.23;;;31.17;;
43529;SDS011;55654;50.966;6.878;2023-02-16T07:28:51;51.57;;;29.50;;
43529;SDS011;55654;50.966;6.878;2023-02-16T07:31:19;54.67;;;30.00;;
43529;SDS011;55654;50.966;6.878;2023-02-16T07:33:45;56.33;;;29.67;;
43529;SDS011;55654;50.966;6.878;2023-02-16T07:36:11;57.93;;;28.70;;
43529;SDS011;55654;50.966;6.878;2023-02-16T07:38:38;51.70;;;30.37;;
43529;SDS011;55654;50.966;6.878;2023-02-16T07:41:06;49.63;;;29.90;;
43529;SDS011;55654;50.966;6.878;2023-02-16T07:43:32;52.87;;;28.90;;
43529;SDS011;55654;50.966;6.878;2023-02-16T07:45:58;51.00;;;28.77;;
43529;SDS011;55654;50.966;6.878;2023-02-16T07:48:27;54.60;;;29.87;;
43529;SDS011;55654;50.966;6.878;2023-02-16T07:50:53;46.43;;;27.47;;
43529;SDS011;55654;50.966;6.878;2023-02-16T07:53:19;50.93;;;28.13;;
43529;SDS011;55654;50.966;6.878;2023-02-16T07:55:45;47.73;;;28.90;;
43529;SDS011;55654;50.966;6.878;2023-02-16T07:58:11;50.37;;;28.20;;
43529;SDS011;55654;50.966;6.878;2023-02-16T08:00:51;50.50;;;27.93;;
43529;SDS011;55654;50.966;6.878;2023-02-16T08:03:17;54.90;;;28.47;;
43529;SDS011;55654;50.966;6.878;2023-02-16T08:05:43;52.17;;;28.03;;
43529;SDS011;55654;50.966;6.878;2023-02-16T08:08:09;51.03;;;26.60;;
43529;SDS011;55654;50.966;6.878;2023-02-16T08:10:38;51.00;;;28.07;;
43529;SDS011;55654;50.966;6.878;2023-02-16T08:13:04;49.23;;;28.27;;
43529;SDS011;55654;50.966;6.878;2023-02-16T08:15:30;45.07;;;27.47;;
43529;SDS011;55654;50.966;6.878;2023-02-16T08:17:56;45.07;;;25.60;;
43529;SDS011;55654;50.966;6.878;2023-02-16T08:20:22;43.43;;;26.17;;
43529;SDS011;55654;50.966;6.878;2023-02-16T08:22:48;53.03;;;27.23;;
43529;SDS011;55654;50.966;6.878;2023-02-16T08:25:14;52.03;;;28.67;;
43529;SDS011;55654;50.966;6.878;2023-02-16T08:27:40;50.07;;;28.33;;
43529;SDS011;55654;50.966;6.878;2023-02-16T08:30:09;47.00;;;27.27;;
43529;SDS011;55654;50.966;6.878;2023-02-16T08:32:37;47.23;;;27.47;;
43529;SDS011;55654;50.966;6.878;2023-02-16T08:35:04;48.43;;;27.30;;
43529;SDS011;55654;50.966;6.878;2023-02-16T08:37:30;46.37;;;27.27;;
43529;SDS011;55654;50.966;6.878;2023-02-16T08:39:59;47.67;;;27.90;;
43529;SDS011;55654;50.966;6.878;2023-02-16T08:42:26;46.87;;;27.50;;
43529;SDS011;55654;50.966;6.878;2023-02-16T08:44:52;47.67;;;28.77;;
43529;SDS011;55654;50.966;6.878;2023-02-16T08:47:18;49.77;;;28.70;;
43529;SDS011;55654;50.966;6.878;2023-02-16T08:49:47;45.20;;;27.67;;
43529;SDS011;55654;50.966;6.878;2023-02-16T08:52:14;47.80;;;28.03;;
43529;SDS011;55654;50.966;6.878;2023-02-16T08:54:40;47.93;;;27.67;;
43529;SDS011;55654;50.966;6.878;2023-02-16T08:57:09;47.17;;;28.53;;
43529;SDS011;55654;50.966;6.878;2023-02-16T08:59:35;52.57;;;28.63;;
43529;SDS011;55654;50.966;6.878;2023-02-16T09:02:01;47.33;;;26.90;;
43529;SDS011;55654;50.966;6.878;2023-02-16T09:04:29;48.67;;;29.07;;
43529;SDS011;55654;50.966;6.878;2023-02-16T09:06:56;48.90;;;29.00;;
43529;SDS011;55654;50.966;6.878;2023-02-16T09:09:22;46.87;;;29.13;;
43529;SDS011;55654;50.966;6.878;2023-02-16T09:11:48;49.07;;;29.77;;
43529;SDS011;55654;50.966;6.878;2023-02-16T09:14:16;57.00;;;30.37;;
43529;SDS011;55654;50.966;6.878;2023-02-16T09:16:42;46.50;;;29.33;;
43529;SDS011;55654;50.966;6.878;2023-02-16T09:19:12;48.97;;;29.30;;
43529;SDS011;55654;50.966;6.878;2023-02-16T09:21:39;45.10;;;26.83;;
43529;SDS011;55654;50.966;6.878;2023-02-16T09:24:05;47.80;;;27.63;;
43529;SDS011;55654;50.966;6.878;2023-02-16T09:26:31;47.60;;;26.80;;
43529;SDS011;55654;50.966;6.878;2023-02-16T09:28:58;45.53;;;25.80;;
43529;SDS011;55654;50.966;6.878;2023-02-16T09:31:29;44.67;;;25.70;;
43529;SDS011;55654;50.966;6.878;2023-02-16T09:34:02;40.53;;;26.90;;
43529;SDS011;55654;50.966;6.878;2023-02-16T09:36:28;40.30;;;26.00;;
43529;SDS011;55654;50.966;6.878;2023-02-16T09:38:55;43.27;;;25.50;;
43529;SDS011;55654;50.966;6.878;2023-02-16T09:44:08;41.80;;;24.97;;
43529;SDS011;55654;50.966;6.878;2023-02-16T09:46:40;44.97;;;25.77;;
43529;SDS011;55654;50.966;6.878;2023-02-16T09:49:08;40.63;;;24.60;;
43529;SDS011;55654;50.966;6.878;2023-02-16T09:51:40;43.33;;;25.20;;
43529;SDS011;55654;50.966;6.878;2023-02-16T09:54:26;39.70;;;25.87;;
43529;SDS011;55654;50.966;6.878;2023-02-16T09:57:02;43.80;;;26.00;;
43529;SDS011;55654;50.966;6.878;2023-02-16T09:59:46;40.90;;;25.80;;
43529;SDS011;55654;50.966;6.878;2023-02-16T10:02:18;35.87;;;23.03;;
43529;SDS011;55654;50.966;6.878;2023-02-16T10:10:21;41.03;;;25.80;;
43529;SDS011;55654;50.966;6.878;2023-02-16T10:12:51;40.43;;;24.07;;
43529;SDS011;55654;50.966;6.878;2023-02-16T10:15:20;41.33;;;26.07;;
43529;SDS011;55654;50.966;6.878;2023-02-16T10:17:50;38.73;;;24.30;;
43529;SDS011;55654;50.966;6.878;2023-02-16T10:20:20;38.03;;;26.13;;
43529;SDS011;55654;50.966;6.878;2023-02-16T10:22:48;40.83;;;25.07;;
43529;SDS011;55654;50.966;6.878;2023-02-16T10:30:48;40.90;;;24.67;;
43529;SDS011;55654;50.966;6.878;2023-02-16T10:33:16;47.13;;;25.87;;
43529;SDS011;55654;50.966;6.878;2023-02-16T10:36:00;39.03;;;24.90;;
43529;SDS011;55654;50.966;6.878;2023-02-16T10:38:30;37.13;;;23.83;;
43529;SDS011;55654;50.966;6.878;2023-02-16T10:43:52;44.20;;;24.83;;
43529;SDS011;55654;50.966;6.878;2023-02-16T10:46:29;37.33;;;24.37;;
43529;SDS011;55654;50.966;6.878;2023-02-16T10:48:55;41.50;;;26.00;;
43529;SDS011;55654;50.966;6.878;2023-02-16T10:51:24;41.57;;;24.40;;
43529;SDS011;55654;50.966;6.878;2023-02-16T10:53:53;38.63;;;25.00;;
43529;SDS011;55654;50.966;6.878;2023-02-16T10:58:56;37.53;;;24.13;;
43529;SDS011;55654;50.966;6.878;2023-02-16T11:01:28;43.07;;;25.83;;
43529;SDS011;55654;50.966;6.878;2023-02-16T11:04:00;38.53;;;23.83;;
43529;SDS011;55654;50.966;6.878;2023-02-16T11:06:26;38.67;;;25.17;;
43529;SDS011;55654;50.966;6.878;2023-02-16T11:08:59;36.93;;;23.50;;
43529;SDS011;55654;50.966;6.878;2023-02-16T11:11:27;38.10;;;24.83;;
43529;SDS011;55654;50.966;6.878;2023-02-16T11:13:58;50.17;;;24.50;;
43529;SDS011;55654;50.966;6.878;2023-02-16T11:16:25;41.03;;;25.00;;
43529;SDS011;55654;50.966;6.878;2023-02-16T11:18:55;35.97;;;24.70;;
43529;SDS011;55654;50.966;6.878;2023-02-16T11:21:40;38.00;;;23.60;;
43529;SDS011;55654;50.966;6.878;2023-02-16T11:24:08;37.50;;;23.80;;
43529;SDS011;55654;50.966;6.878;2023-02-16T11:26:35;39.57;;;24.83;;
43529;SDS011;55654;50.966;6.878;2023-02-16T11:29:17;41.33;;;25.40;;
43529;SDS011;55654;50.966;6.878;2023-02-16T11:34:13;39.80;;;24.47;;
43529;SDS011;55654;50.966;6.878;2023-02-16T11:36:41;37.90;;;24.47;;
43529;SDS011;55654;50.966;6.878;2023-02-16T11:39:21;38.03;;;24.90;;
43529;SDS011;55654;50.966;6.878;2023-02-16T11:44:28;40.40;;;25.30;;
43529;SDS011;55654;50.966;6.878;2023-02-16T11:49:42;44.90;;;25.43;;
43529;SDS011;55654;50.966;6.878;2023-02-16T11:54:50;41.60;;;26.23;;
43529;SDS011;55654;50.966;6.878;2023-02-16T11:57:21;35.73;;;24.87;;
43529;SDS011;55654;50.966;6.878;2023-02-16T11:59:47;37.63;;;25.40;;
43529;SDS011;55654;50.966;6.878;2023-02-16T12:02:25;42.63;;;27.00;;
43529;SDS011;55654;50.966;6.878;2023-02-16T12:09:58;37.27;;;26.30;;
43529;SDS011;55654;50.966;6.878;2023-02-16T12:20:24;39.00;;;26.43;;
43529;SDS011;55654;50.966;6.878;2023-02-16T12:25:40;40.00;;;26.27;;
43529;SDS011;55654;50.966;6.878;2023-02-16T12:28:13;40.47;;;26.10;;
43529;SDS011;55654;50.966;6.878;2023-02-16T12:30:59;40.92;;;24.55;;
43529;SDS011;55654;50.966;6.878;2023-02-16T12:41:44;41.50;;;26.00;;
43529;SDS011;55654;50.966;6.878;2023-02-16T12:44:14;44.20;;;25.67;;
43529;SDS011;55654;50.966;6.878;2023-02-16T12:46:42;36.40;;;24.60;;
43529;SDS011;55654;50.966;6.878;2023-02-16T12:49:16;41.77;;;25.57;;
43529;SDS011;55654;50.966;6.878;2023-02-16T12:51:48;38.30;;;24.33;;
43529;SDS011;55654;50.966;6.878;2023-02-16T12:57:10;40.03;;;26.07;;
43529;SDS011;55654;50.966;6.878;2023-02-16T13:02:04;41.77;;;27.47;;
43529;SDS011;55654;50.966;6.878;2023-02-16T13:04:48;41.17;;;27.00;;
43529;SDS011;55654;50.966;6.878;2023-02-16T13:07:19;41.07;;;25.80;;
43529;SDS011;55654;50.966;6.878;2023-02-16T13:14:57;44.57;;;26.10;;
43529;SDS011;55654;50.966;6.878;2023-02-16T13:17:33;34.00;;;24.70;;
43529;SDS011;55654;50.966;6.878;2023-02-16T13:19:59;42.90;;;26.60;;
43529;SDS011;55654;50.966;6.878;2023-02-16T13:36:23;40.43;;;26.00;;
43529;SDS011;55654;50.966;6.878;2023-02-16T13:39:04;39.67;;;25.90;;
43529;SDS011;55654;50.966;6.878;2023-02-16T13:41:43;39.10;;;25.20;;
43529;SDS011;55654;50.966;6.878;2023-02-16T13:46:43;42.17;;;25.13;;
43529;SDS011;55654;50.966;6.878;2023-02-16T13:49:32;41.33;;;27.00;;
43529;SDS011;55654;50.966;6.878;2023-02-16T13:52:06;34.50;;;23.30;;
43529;SDS011;55654;50.966;6.878;2023-02-16T13:54:33;31.73;;;20.97;;
43529;SDS011;55654;50.966;6.878;2023-02-16T13:57:00;31.10;;;20.77;;
43529;SDS011;55654;50.966;6.878;2023-02-16T14:01:54;26.50;;;17.80;;
43529;SDS011;55654;50.966;6.878;2023-02-16T14:06:47;28.98;;;18.08;;
43529;SDS011;55654;50.966;6.878;2023-02-16T14:16:51;22.92;;;14.75;;
43529;SDS011;55654;50.966;6.878;2023-02-16T14:19:20;20.20;;;13.18;;
43529;SDS011;55654;50.966;6.878;2023-02-16T14:21:49;21.25;;;14.40;;
43529;SDS011;55654;50.966;6.878;2023-02-16T14:26:51;21.50;;;12.55;;
43529;SDS011;55654;50.966;6.878;2023-02-16T14:29:22;23.25;;;13.73;;
43529;SDS011;55654;50.966;6.878;2023-02-16T14:31:58;18.20;;;12.68;;
43529;SDS011;55654;50.966;6.878;2023-02-16T14:34:33;18.30;;;12.70;;
43529;SDS011;55654;50.966;6.878;2023-02-16T14:42:15;21.00;;;12.30;;
43529;SDS011;55654;50.966;6.878;2023-02-16T14:47:27;21.98;;;11.07;;
43529;SDS011;55654;50.966;6.878;2023-02-16T15:02:56;17.50;;;10.95;;
43529;SDS011;55654;50.966;6.878;2023-02-16T15:05:24;18.52;;;10.43;;
43529;SDS011;55654;50.966;6.878;2023-02-16T15:07:54;13.80;;;10.35;;
43529;SDS011;55654;50.966;6.878;2023-02-16T15:10:26;17.77;;;11.30;;
43529;SDS011;55654;50.966;6.878;2023-02-16T15:12:56;16.77;;;10.75;;
43529;SDS011;55654;50.966;6.878;2023-02-16T15:15:44;19.17;;;11.73;;
43529;SDS011;55654;50.966;6.878;2023-02-16T15:18:16;16.95;;;10.75;;
43529;SDS011;55654;50.966;6.878;2023-02-16T15:20:43;20.20;;;11.32;;
43529;SDS011;55654;50.966;6.878;2023-02-16T15:23:17;17.98;;;10.70;;
43529;SDS011;55654;50.966;6.878;2023-02-16T15:28:19;20.13;;;11.57;;
43529;SDS011;55654;50.966;6.878;2023-02-16T15:30:50;15.57;;;10.10;;
43529;SDS011;55654;50.966;6.878;2023-02-16T15:35:56;16.52;;;10.90;;
43529;SDS011;55654;50.966;6.878;2023-02-16T15:38:26;15.20;;;10.32;;
43529;SDS011;55654;50.966;6.878;2023-02-16T15:40:56;16.42;;;10.18;;
43529;SDS011;55654;50.966;6.878;2023-02-16T15:45:51;15.65;;;8.85;;
43529;SDS011;55654;50.966;6.878;2023-02-16T15:48:22;17.20;;;9.50;;
43529;SDS011;55654;50.966;6.878;2023-02-16T15:50:49;13.45;;;8.77;;
43529;SDS011;55654;50.966;6.878;2023-02-16T15:53:21;12.77;;;8.35;;
43529;SDS011;55654;50.966;6.878;2023-02-16T15:55:48;18.23;;;9.27;;
43529;SDS011;55654;50.966;6.878;2023-02-16T15:58:16;15.43;;;9.07;;
43529;SDS011;55654;50.966;6.878;2023-02-16T16:00:45;14.50;;;8.27;;
43529;SDS011;55654;50.966;6.878;2023-02-16T16:03:15;14.70;;;9.05;;
43529;SDS011;55654;50.966;6.878;2023-02-16T16:05:42;16.60;;;9.30;;
43529;SDS011;55654;50.966;6.878;2023-02-16T16:08:17;15.88;;;10.25;;
43529;SDS011;55654;50.966;6.878;2023-02-16T16:10:43;14.13;;;9.25;;
43529;SDS011;55654;50.966;6.878;2023-02-16T16:13:12;14.30;;;9.87;;
43529;SDS011;55654;50.966;6.878;2023-02-16T16:15:42;13.17;;;8.53;;
43529;SDS011;55654;50.966;6.878;2023-02-16T16:18:32;16.27;;;9.03;;
43529;SDS011;55654;50.966;6.878;2023-02-16T16:20:58;14.33;;;9.20;;
43529;SDS011;55654;50.966;6.878;2023-02-16T16:23:27;12.37;;;8.50;;
43529;SDS011;55654;50.966;6.878;2023-02-16T16:25:53;14.77;;;7.97;;
43529;SDS011;55654;50.966;6.878;2023-02-16T16:39:07;14.77;;;7.65;;
43529;SDS011;55654;50.966;6.878;2023-02-16T16:41:33;13.03;;;8.40;;
43529;SDS011;55654;50.966;6.878;2023-02-16T16:43:59;12.83;;;7.63;;
43529;SDS011;55654;50.966;6.878;2023-02-16T16:46:26;12.30;;;8.03;;
43529;SDS011;55654;50.966;6.878;2023-02-16T16:48:57;14.67;;;8.17;;
43529;SDS011;55654;50.966;6.878;2023-02-16T16:53:56;12.97;;;7.03;;
43529;SDS011;55654;50.966;6.878;2023-02-16T16:56:27;18.73;;;7.90;;
43529;SDS011;55654;50.966;6.878;2023-02-16T16:58:55;16.40;;;7.97;;
43529;SDS011;55654;50.966;6.878;2023-02-16T17:01:21;14.53;;;7.43;;
43529;SDS011;55654;50.966;6.878;2023-02-16T17:03:47;12.47;;;7.77;;
43529;SDS011;55654;50.966;6.878;2023-02-16T17:06:13;13.37;;;7.37;;
43529;SDS011;55654;50.966;6.878;2023-02-16T17:08:39;15.13;;;8.07;;
43529;SDS011;55654;50.966;6.878;2023-02-16T17:11:06;16.90;;;8.97;;
43529;SDS011;55654;50.966;6.878;2023-02-16T17:13:33;16.77;;;8.23;;
43529;SDS011;55654;50.966;6.878;2023-02-16T17:16:04;14.50;;;8.33;;
43529;SDS011;55654;50.966;6.878;2023-02-16T17:18:31;19.00;;;9.17;;